Time;durP1;ratioP1;P1;durP2;ratioP2;P2;SDS_P1;SDS_P2;PMS_P1;PMS_P2;Temp;Humidity;BMP_temperature;BMP_pressure;BME280_temperature;BME280_humidity;BME280_pressure;Samples;Min_cycle;Max_cycle;Signal;HPM_P1;HPM_P2
2021/07/18 00:02:15;;;;;;;1.60;1.05;;;16.80;99.90;;;;;;4951747;28;20192;-68
2021/07/18 00:04:46;;;;;;;1.73;0.90;;;16.80;99.90;;;;;;4951543;28;20205;-68
2021/07/18 00:07:12;;;;;;;1.98;1.45;;;16.80;99.90;;;;;;4951023;28;20197;-68
2021/07/18 00:09:37;;;;;;;1.27;0.80;;;16.90;99.90;;;;;;4951276;28;20224;-68
2021/07/18 00:12:03;;;;;;;1.55;0.93;;;16.80;99.90;;;;;;4951782;28;20182;-66
2021/07/18 00:14:29;;;;;;;3.13;1.10;;;16.70;99.90;;;;;;4951365;28;20186;-69
2021/07/18 00:16:55;;;;;;;1.50;0.80;;;16.70;99.90;;;;;;4951387;28;20185;-67
2021/07/18 00:19:43;;;;;;;2.13;1.25;;;16.70;99.90;;;;;;4951386;28;20349;-66
2021/07/18 00:22:09;;;;;;;1.38;0.93;;;16.60;99.90;;;;;;4951323;28;20656;-70
2021/07/18 00:24:36;;;;;;;2.30;1.00;;;16.70;99.90;;;;;;4951470;28;20233;-69
2021/07/18 00:27:02;;;;;;;1.58;1.30;;;16.70;99.90;;;;;;4949160;29;20772;-68
2021/07/18 00:29:36;;;;;;;2.00;1.25;;;16.80;99.90;;;;;;4952089;28;20213;-66
2021/07/18 00:32:01;;;;;;;1.45;0.95;;;16.80;99.90;;;;;;4951654;29;20178;-69
2021/07/18 00:34:27;;;;;;;1.20;1.10;;;16.90;99.90;;;;;;4950273;29;20190;-68
2021/07/18 00:36:53;;;;;;;3.17;0.95;;;17.00;99.90;;;;;;4949923;29;20178;-68
2021/07/18 00:39:18;;;;;;;2.33;0.90;;;17.10;99.90;;;;;;4951840;28;20217;-67
2021/07/18 00:41:56;;;;;;;1.58;1.00;;;17.10;99.90;;;;;;4951898;28;20699;-68
2021/07/18 00:44:21;;;;;;;2.00;1.27;;;17.20;99.90;;;;;;4951242;28;20656;-66
2021/07/18 00:46:48;;;;;;;1.60;0.93;;;17.30;99.90;;;;;;4950620;28;20202;-67
2021/07/18 00:49:14;;;;;;;1.25;1.00;;;17.40;99.90;;;;;;4951096;28;20207;-68
2021/07/18 00:51:45;;;;;;;2.28;1.23;;;17.30;99.90;;;;;;4952213;28;20186;-66
2021/07/18 00:54:11;;;;;;;1.35;1.17;;;17.40;99.90;;;;;;4955566;28;20232;-66
2021/07/18 00:56:47;;;;;;;0.90;0.80;;;17.50;99.90;;;;;;4955205;28;20185;-67
2021/07/18 00:59:13;;;;;;;1.65;0.90;;;17.50;99.90;;;;;;4955146;28;20217;-66
2021/07/18 01:01:39;;;;;;;2.65;0.95;;;17.60;99.90;;;;;;4955460;28;20272;-71
2021/07/18 01:04:04;;;;;;;1.00;0.90;;;17.50;99.90;;;;;;4955569;28;20633;-67
2021/07/18 01:06:30;;;;;;;1.90;1.20;;;17.50;99.90;;;;;;4954026;28;20605;-68
2021/07/18 01:08:57;;;;;;;1.63;1.08;;;17.70;99.90;;;;;;4955391;28;20181;-67
2021/07/18 01:11:39;;;;;;;1.02;0.93;;;17.70;99.90;;;;;;4955273;28;20205;-69
2021/07/18 01:14:05;;;;;;;1.88;1.55;;;17.70;99.90;;;;;;4954288;29;20225;-67
2021/07/18 01:16:31;;;;;;;4.93;1.48;;;17.70;99.90;;;;;;4954864;28;20185;-68
2021/07/18 01:18:57;;;;;;;3.78;1.20;;;17.70;99.90;;;;;;4954813;28;20180;-66
2021/07/18 01:21:24;;;;;;;2.60;1.48;;;17.70;99.90;;;;;;4954123;28;20185;-68
2021/07/18 01:23:54;;;;;;;2.53;1.25;;;17.70;99.90;;;;;;4955820;28;20201;-66
2021/07/18 01:26:20;;;;;;;3.60;1.60;;;17.70;99.90;;;;;;4953580;29;20233;-67
2021/07/18 01:29:15;;;;;;;1.30;1.20;;;17.70;99.90;;;;;;4954377;29;20593;-69
2021/07/18 01:31:41;;;;;;;1.60;1.50;;;17.70;99.90;;;;;;4953622;29;20252;-69
2021/07/18 01:34:07;;;;;;;2.15;1.70;;;17.80;99.90;;;;;;4954812;28;20269;-67
2021/07/18 01:36:33;;;;;;;1.63;1.38;;;17.80;99.90;;;;;;4951609;29;20213;-67
2021/07/18 01:38:59;;;;;;;6.00;1.92;;;17.70;99.90;;;;;;4954796;28;20228;-65
2021/07/18 01:41:28;;;;;;;1.98;1.80;;;17.80;99.90;;;;;;4954767;28;20277;-69
2021/07/18 01:43:54;;;;;;;2.08;1.40;;;17.80;99.90;;;;;;4954309;29;20201;-66
2021/07/18 01:46:20;;;;;;;2.88;1.67;;;17.70;99.90;;;;;;4953357;28;20220;-69
2021/07/18 01:48:58;;;;;;;2.15;1.50;;;17.80;99.90;;;;;;4954071;28;20296;-66
2021/07/18 01:51:48;;;;;;;2.80;1.20;;;17.90;99.90;;;;;;4954511;29;20265;-67
2021/07/18 01:54:14;;;;;;;1.60;1.40;;;17.90;99.90;;;;;;4954037;29;20661;-68
2021/07/18 01:56:40;;;;;;;4.93;2.50;;;17.90;99.90;;;;;;4954458;28;20185;-69
2021/07/18 01:59:06;;;;;;;4.28;1.65;;;17.90;99.90;;;;;;4953771;28;20216;-67
2021/07/18 02:01:33;;;;;;;3.78;2.13;;;17.80;99.90;;;;;;4954084;28;20217;-69
2021/07/18 02:04:00;;;;;;;2.75;2.25;;;17.80;99.90;;;;;;4953937;28;20331;-67
2021/07/18 02:06:26;;;;;;;3.63;2.15;;;17.90;99.90;;;;;;4953563;28;20201;-68
2021/07/18 02:09:00;;;;;;;3.90;2.13;;;17.90;99.90;;;;;;4953354;28;20181;-66
2021/07/18 02:11:27;;;;;;;9.00;1.83;;;17.80;99.90;;;;;;4953274;29;20321;-69
2021/07/18 02:13:54;;;;;;;4.00;1.95;;;17.70;99.90;;;;;;4954059;29;20672;-67
2021/07/18 02:16:22;;;;;;;3.00;1.70;;;17.70;99.90;;;;;;4953724;29;20189;-68
2021/07/18 02:18:48;;;;;;;3.03;2.17;;;17.70;99.90;;;;;;4953843;28;20182;-69
2021/07/18 02:21:48;;;;;;;3.95;1.83;;;17.60;99.90;;;;;;4953012;29;20209;-69
2021/07/18 02:24:13;;;;;;;3.13;2.40;;;17.60;99.90;;;;;;4953803;28;20648;-66
2021/07/18 02:26:46;;;;;;;2.65;2.10;;;17.60;99.90;;;;;;4953658;28;20197;-69
2021/07/18 02:29:12;;;;;;;2.15;1.95;;;17.70;99.90;;;;;;4953358;29;20292;-66
2021/07/18 02:31:37;;;;;;;2.35;2.05;;;17.70;99.90;;;;;;4952050;29;20269;-69
2021/07/18 02:34:08;;;;;;;3.33;2.17;;;17.70;99.90;;;;;;4952221;29;20185;-69
2021/07/18 02:36:33;;;;;;;3.42;2.60;;;17.70;99.90;;;;;;4952026;28;20185;-66
2021/07/18 02:39:00;;;;;;;3.35;2.60;;;17.70;99.90;;;;;;4953325;28;20763;-68
2021/07/18 02:41:35;;;;;;;4.78;2.63;;;17.70;99.90;;;;;;4953323;28;20189;-67
2021/07/18 02:44:03;;;;;;;2.28;2.03;;;17.70;99.90;;;;;;4951177;29;20204;-67
2021/07/18 02:46:36;;;;;;;3.47;2.83;;;17.70;99.90;;;;;;4967347;28;20186;-66
2021/07/18 02:49:02;;;;;;;3.90;2.33;;;17.60;99.90;;;;;;4952918;28;20192;-66
2021/07/18 02:51:28;;;;;;;3.33;2.55;;;17.60;99.90;;;;;;4947462;28;20204;-70
2021/07/18 02:53:54;;;;;;;3.03;2.47;;;17.60;99.90;;;;;;4947026;28;20174;-68
2021/07/18 02:56:19;;;;;;;5.38;2.40;;;17.70;99.90;;;;;;4946163;28;20181;-68
2021/07/18 02:58:45;;;;;;;6.10;2.97;;;17.70;99.90;;;;;;4946672;28;20186;-68
2021/07/18 03:01:10;;;;;;;3.72;2.75;;;17.70;99.90;;;;;;4946825;28;20688;-68
2021/07/18 03:03:36;;;;;;;5.03;2.88;;;17.70;99.90;;;;;;4946786;28;20933;-66
2021/07/18 03:06:02;;;;;;;3.25;2.50;;;17.60;99.90;;;;;;4945980;28;20178;-70
2021/07/18 03:08:27;;;;;;;2.22;2.03;;;17.70;99.90;;;;;;4946726;28;20189;-68
2021/07/18 03:10:53;;;;;;;3.53;2.85;;;17.60;99.90;;;;;;4946540;28;20225;-67
2021/07/18 03:13:19;;;;;;;4.57;2.20;;;17.60;99.90;;;;;;4946622;28;20205;-70
2021/07/18 03:15:44;;;;;;;2.17;1.85;;;17.60;99.90;;;;;;4945641;28;20727;-69
2021/07/18 03:18:10;;;;;;;5.45;2.92;;;17.60;99.90;;;;;;4946367;28;20204;-66
2021/07/18 03:20:35;;;;;;;2.60;2.22;;;17.60;99.90;;;;;;4946616;28;20268;-67
2021/07/18 03:23:02;;;;;;;3.08;2.75;;;17.60;99.90;;;;;;4946209;28;20201;-66
2021/07/18 03:25:27;;;;;;;4.88;2.45;;;17.50;99.90;;;;;;4946005;28;20182;-67
2021/07/18 03:27:53;;;;;;;3.10;2.13;;;17.60;99.90;;;;;;4946541;28;20190;-68
2021/07/18 03:30:20;;;;;;;3.63;1.85;;;17.50;99.90;;;;;;4946351;28;20205;-69
2021/07/18 03:32:46;;;;;;;5.68;2.47;;;17.50;99.90;;;;;;4946561;28;20188;-69
2021/07/18 03:35:13;;;;;;;2.75;2.00;;;17.60;99.90;;;;;;4946619;28;20216;-67
2021/07/18 03:37:39;;;;;;;4.07;2.15;;;17.60;99.90;;;;;;4945829;28;20173;-68
2021/07/18 03:40:06;;;;;;;6.95;3.00;;;17.70;99.90;;;;;;4946500;28;20747;-67
2021/07/18 03:42:31;;;;;;;5.30;2.50;;;17.70;99.90;;;;;;4946335;28;20670;-70
2021/07/18 03:44:57;;;;;;;2.72;2.28;;;17.70;99.90;;;;;;4946148;28;20194;-68
2021/07/18 03:47:23;;;;;;;2.88;2.60;;;17.70;99.90;;;;;;4945847;28;20265;-70
2021/07/18 03:49:48;;;;;;;4.55;2.03;;;17.70;99.90;;;;;;4946167;28;20675;-65
2021/07/18 03:52:14;;;;;;;4.45;2.25;;;17.70;99.90;;;;;;4945178;28;20212;-67
2021/07/18 03:54:39;;;;;;;3.40;1.90;;;17.70;99.90;;;;;;4946871;28;20547;-69
2021/07/18 03:57:05;;;;;;;3.25;2.17;;;17.70;99.90;;;;;;4945690;28;20181;-67
2021/07/18 03:59:31;;;;;;;2.20;1.95;;;17.70;99.90;;;;;;4945802;28;20225;-68
2021/07/18 04:01:57;;;;;;;2.90;2.47;;;17.70;99.90;;;;;;4946060;28;20186;-68
2021/07/18 04:04:22;;;;;;;8.18;2.72;;;17.70;99.90;;;;;;4946519;28;20247;-69
2021/07/18 04:06:48;;;;;;;3.78;2.38;;;17.70;99.90;;;;;;4945764;28;20700;-66
2021/07/18 04:09:13;;;;;;;2.10;1.90;;;17.80;99.90;;;;;;4945991;28;20232;-67
2021/07/18 04:11:39;;;;;;;2.28;1.98;;;17.80;99.90;;;;;;4946203;28;20231;-68
2021/07/18 04:14:05;;;;;;;3.63;2.47;;;17.90;99.90;;;;;;4946433;28;20190;-67
2021/07/18 04:16:30;;;;;;;2.13;1.92;;;17.90;99.90;;;;;;4945424;28;20268;-69
2021/07/18 04:18:56;;;;;;;3.72;2.67;;;17.90;99.90;;;;;;4946124;28;20189;-66
2021/07/18 04:21:22;;;;;;;5.60;2.22;;;18.00;99.90;;;;;;4945980;28;20236;-67
2021/07/18 04:23:48;;;;;;;2.22;1.98;;;18.00;99.90;;;;;;4946143;28;20566;-68
2021/07/18 04:26:14;;;;;;;3.80;2.10;;;18.00;99.90;;;;;;4945358;28;20558;-71
2021/07/18 04:28:40;;;;;;;2.33;2.00;;;18.10;99.90;;;;;;4948720;29;20553;-69
2021/07/18 04:31:06;;;;;;;2.75;2.40;;;18.00;99.90;;;;;;4964261;28;20288;-72
2021/07/18 04:33:31;;;;;;;1.95;1.67;;;18.00;99.90;;;;;;4949656;28;20602;-67
2021/07/18 04:35:57;;;;;;;3.05;1.90;;;18.10;99.90;;;;;;4948739;28;20281;-67
2021/07/18 04:38:22;;;;;;;3.42;1.90;;;18.10;99.90;;;;;;4948089;29;20236;-69
2021/07/18 04:40:48;;;;;;;2.15;1.75;;;18.10;99.90;;;;;;4948072;28;20223;-67
2021/07/18 04:43:14;;;;;;;3.20;2.13;;;18.10;99.90;;;;;;4948148;28;20216;-69
2021/07/18 04:45:39;;;;;;;3.28;2.22;;;18.10;99.90;;;;;;4948788;28;20664;-66
2021/07/18 04:48:05;;;;;;;2.92;1.85;;;18.10;99.90;;;;;;4948806;28;20189;-69
2021/07/18 04:50:31;;;;;;;2.88;2.42;;;18.20;99.90;;;;;;4949151;28;20309;-66
2021/07/18 04:52:57;;;;;;;3.20;2.13;;;18.20;99.90;;;;;;4949507;28;20268;-69
2021/07/18 04:55:23;;;;;;;4.43;2.45;;;18.30;99.90;;;;;;4948828;29;20181;-68
2021/07/18 04:57:49;;;;;;;2.35;1.80;;;18.30;99.90;;;;;;4948954;28;20186;-65
2021/07/18 05:00:20;;;;;;;2.58;1.92;;;18.50;99.90;;;;;;4947544;28;20229;-68
2021/07/18 05:02:46;;;;;;;2.72;1.90;;;18.50;99.90;;;;;;4948813;28;20182;-69
2021/07/18 05:05:13;;;;;;;2.33;2.10;;;18.60;99.90;;;;;;4949074;28;20652;-67
2021/07/18 05:07:53;;;;;;;1.90;1.80;;;18.70;99.90;;;;;;4947996;29;20178;-65
2021/07/18 05:10:20;;;;;;;2.10;1.50;;;18.60;99.90;;;;;;4948653;28;20687;-68
2021/07/18 05:12:48;;;;;;;2.42;2.10;;;18.70;99.90;;;;;;4948652;28;20516;-70
2021/07/18 05:15:14;;;;;;;2.10;1.80;;;18.70;99.90;;;;;;4948922;28;20181;-66
2021/07/18 05:17:40;;;;;;;2.55;2.03;;;19.00;99.90;;;;;;4948492;28;20586;-69
2021/07/18 05:20:08;;;;;;;3.15;1.80;;;19.20;99.90;;;;;;4948363;28;20271;-69
2021/07/18 05:22:34;;;;;;;2.88;2.25;;;19.30;99.90;;;;;;4948924;28;20181;-68
2021/07/18 05:25:01;;;;;;;2.75;1.55;;;19.20;99.90;;;;;;4948630;28;20659;-67
2021/07/18 05:27:27;;;;;;;2.30;1.45;;;19.20;99.90;;;;;;4947544;28;20280;-67
2021/07/18 05:29:52;;;;;;;4.00;1.58;;;19.60;99.90;;;;;;4948388;28;20284;-64
2021/07/18 05:32:18;;;;;;;2.00;1.52;;;19.90;99.90;;;;;;4947016;28;20185;-68
2021/07/18 05:34:44;;;;;;;2.35;1.60;;;20.20;99.90;;;;;;4948555;28;20520;-68
2021/07/18 05:37:10;;;;;;;1.75;1.55;;;20.30;99.90;;;;;;4947786;28;20189;-67
2021/07/18 05:39:36;;;;;;;2.38;1.38;;;20.50;99.90;;;;;;4947882;28;20213;-67
2021/07/18 05:42:02;;;;;;;1.92;1.45;;;20.40;99.90;;;;;;4948368;28;20641;-67
2021/07/18 05:44:28;;;;;;;1.27;1.17;;;20.40;99.90;;;;;;4948139;28;20217;-69
2021/07/18 05:46:54;;;;;;;2.22;1.50;;;20.40;99.90;;;;;;4946330;28;20624;-66
2021/07/18 05:49:20;;;;;;;3.47;2.10;;;20.70;99.90;;;;;;4947787;28;20288;-68
2021/07/18 05:51:45;;;;;;;1.50;1.40;;;20.70;99.90;;;;;;4948200;28;20181;-69
2021/07/18 05:54:11;;;;;;;1.75;1.20;;;20.60;99.90;;;;;;4947935;28;20556;-65
2021/07/18 05:56:37;;;;;;;3.05;1.85;;;20.80;99.90;;;;;;4947254;29;20217;-66
2021/07/18 05:59:03;;;;;;;3.05;1.38;;;21.00;99.90;;;;;;4947871;28;20190;-67
2021/07/18 06:01:29;;;;;;;2.50;1.73;;;21.20;99.90;;;;;;4947873;28;20674;-69
2021/07/18 06:03:55;;;;;;;1.85;1.13;;;21.40;99.90;;;;;;4947642;28;20810;-69
2021/07/18 06:06:20;;;;;;;4.18;1.58;;;21.40;99.90;;;;;;4947073;28;20735;-68
2021/07/18 06:08:46;;;;;;;3.20;1.20;;;21.60;99.90;;;;;;4962405;28;20217;-68
2021/07/18 06:11:12;;;;;;;2.00;1.10;;;22.20;99.90;;;;;;4947352;28;20222;-66
2021/07/18 06:13:38;;;;;;;1.20;1.10;;;22.10;99.90;;;;;;4946518;28;20193;-68
2021/07/18 06:16:04;;;;;;;2.58;1.48;;;22.00;99.90;;;;;;4947063;28;20706;-66
2021/07/18 06:18:30;;;;;;;1.40;1.30;;;22.90;99.90;;;;;;4947750;28;20568;-69
2021/07/18 06:20:56;;;;;;;0.93;0.93;;;23.80;99.90;;;;;;4947627;28;20205;-68
2021/07/18 06:23:21;;;;;;;2.55;1.27;;;24.20;99.90;;;;;;4947528;28;20201;-68
2021/07/18 06:25:47;;;;;;;1.55;1.20;;;24.40;99.90;;;;;;4946949;28;20193;-69
2021/07/18 06:28:13;;;;;;;2.55;1.20;;;24.10;99.90;;;;;;4947087;28;20241;-69
2021/07/18 06:30:39;;;;;;;1.17;0.90;;;23.70;99.90;;;;;;4962392;28;20232;-67
2021/07/18 06:33:04;;;;;;;1.95;1.10;;;23.50;99.90;;;;;;4944022;28;20205;-69
2021/07/18 06:35:30;;;;;;;1.95;1.35;;;23.30;99.90;;;;;;4946678;28;20186;-69
2021/07/18 06:37:56;;;;;;;1.20;1.10;;;23.20;99.90;;;;;;4946799;28;20193;-68
2021/07/18 06:40:21;;;;;;;3.05;1.30;;;23.10;99.90;;;;;;4946891;28;20292;-68
2021/07/18 06:42:47;;;;;;;1.50;1.20;;;23.00;99.90;;;;;;4946556;28;20249;-67
2021/07/18 06:45:13;;;;;;;1.05;0.95;;;23.20;99.90;;;;;;4947036;28;20216;-66
2021/07/18 06:47:39;;;;;;;1.00;0.90;;;23.10;99.90;;;;;;4946234;28;20173;-67
2021/07/18 06:50:05;;;;;;;1.92;1.40;;;22.80;99.90;;;;;;4945915;28;20677;-68
2021/07/18 06:52:30;;;;;;;1.20;1.10;;;22.60;99.90;;;;;;4946438;28;20305;-68
2021/07/18 06:54:56;;;;;;;2.83;1.35;;;22.60;99.90;;;;;;4946662;28;20617;-70
2021/07/18 06:57:23;;;;;;;6.38;1.58;;;22.80;99.90;;;;;;4960491;28;20190;-70
2021/07/18 06:59:48;;;;;;;1.77;1.02;;;23.10;99.90;;;;;;4946309;28;20212;-69
2021/07/18 07:02:15;;;;;;;0.88;0.88;;;23.20;99.90;;;;;;4946259;28;20268;-65
2021/07/18 07:04:41;;;;;;;1.92;0.95;;;23.10;99.90;;;;;;4946533;28;20234;-68
2021/07/18 07:07:06;;;;;;;0.93;0.80;;;22.90;99.90;;;;;;4945960;28;20602;-68
2021/07/18 07:09:32;;;;;;;1.20;1.08;;;23.10;99.90;;;;;;4946174;28;20215;-68
2021/07/18 07:11:58;;;;;;;2.13;1.60;;;23.10;99.90;;;;;;4945970;28;20196;-67
2021/07/18 07:14:23;;;;;;;1.75;1.17;;;22.90;99.90;;;;;;4945998;28;20611;-66
2021/07/18 07:16:49;;;;;;;1.23;1.10;;;22.60;99.90;;;;;;4945118;28;20636;-67
2021/07/18 07:19:15;;;;;;;0.88;0.75;;;22.80;99.90;;;;;;4945763;28;20217;-67
2021/07/18 07:21:41;;;;;;;2.20;1.00;;;23.10;99.90;;;;;;4945828;28;20631;-66
2021/07/18 07:24:06;;;;;;;1.67;1.35;;;23.30;99.90;;;;;;4945902;28;20758;-67
2021/07/18 07:26:32;;;;;;;0.95;0.80;;;23.20;99.90;;;;;;4945371;28;20273;-69
2021/07/18 07:28:58;;;;;;;1.00;0.98;;;23.10;99.90;;;;;;4946456;28;20193;-66
2021/07/18 07:31:24;;;;;;;1.38;1.10;;;22.90;99.90;;;;;;4946473;28;20178;-66
2021/07/18 07:33:49;;;;;;;1.35;1.20;;;22.90;99.90;;;;;;4946273;28;20182;-66
2021/07/18 07:36:17;;;;;;;1.17;0.98;;;22.80;99.90;;;;;;4945371;28;20268;-65
2021/07/18 07:38:43;;;;;;;1.55;1.00;;;22.80;99.90;;;;;;4946012;28;20563;-69
2021/07/18 07:41:09;;;;;;;1.98;1.13;;;22.60;99.90;;;;;;4946250;28;20237;-66
2021/07/18 07:43:35;;;;;;;2.75;1.30;;;22.50;99.90;;;;;;4946240;28;20251;-67
2021/07/18 07:46:02;;;;;;;1.90;1.17;;;22.60;99.90;;;;;;4960137;28;20659;-68
2021/07/18 07:48:27;;;;;;;1.45;1.15;;;22.60;99.90;;;;;;4946220;28;20269;-67
2021/07/18 07:50:54;;;;;;;1.38;0.80;;;22.40;99.90;;;;;;4946020;28;20324;-67
2021/07/18 07:53:20;;;;;;;4.03;1.73;;;22.70;99.90;;;;;;4945963;28;20177;-66
2021/07/18 07:55:45;;;;;;;1.42;1.05;;;22.80;99.90;;;;;;4945089;28;20205;-65
2021/07/18 07:58:12;;;;;;;1.67;1.40;;;23.00;99.90;;;;;;4945575;28;20764;-67
2021/07/18 08:00:37;;;;;;;4.25;1.10;;;23.10;99.90;;;;;;4945856;28;20625;-66
2021/07/18 08:03:03;;;;;;;1.55;1.45;;;23.00;99.90;;;;;;4949761;28;20201;-67
2021/07/18 08:05:29;;;;;;;1.17;1.00;;;22.90;99.90;;;;;;4949543;28;20252;-69
2021/07/18 08:07:55;;;;;;;1.58;0.95;;;22.80;99.90;;;;;;4949449;28;20918;-66
2021/07/18 08:10:22;;;;;;;1.27;0.93;;;22.80;99.90;;;;;;4949811;28;20574;-70
2021/07/18 08:12:50;;;;;;;1.10;1.00;;;22.80;99.90;;;;;;4949620;28;20201;-69
2021/07/18 08:15:17;;;;;;;1.30;1.20;;;22.90;99.90;;;;;;4949452;28;20264;-65
2021/07/18 08:17:44;;;;;;;2.17;1.00;;;23.10;99.90;;;;;;4949515;28;20190;-66
2021/07/18 08:20:14;;;;;;;0.70;0.60;;;23.20;99.90;;;;;;4949715;28;20255;-68
2021/07/18 08:22:39;;;;;;;1.60;1.00;;;23.40;99.90;;;;;;4949738;28;20197;-71
2021/07/18 08:25:06;;;;;;;1.10;1.00;;;23.30;99.90;;;;;;4963924;28;20213;-68
2021/07/18 08:27:32;;;;;;;1.85;1.42;;;23.00;99.90;;;;;;4948287;28;20197;-64
2021/07/18 08:29:58;;;;;;;1.77;1.42;;;23.20;99.90;;;;;;4949089;28;20202;-67
2021/07/18 08:32:23;;;;;;;2.90;1.35;;;23.50;99.90;;;;;;4942330;28;20189;-68
2021/07/18 08:34:49;;;;;;;1.77;1.30;;;23.50;99.90;;;;;;4946774;28;20181;-68
2021/07/18 08:37:15;;;;;;;3.33;1.33;;;23.50;99.90;;;;;;4946017;28;20232;-69
2021/07/18 08:39:40;;;;;;;1.38;1.27;;;23.60;99.90;;;;;;4945732;28;20213;-69
2021/07/18 08:42:12;;;;;;;1.10;0.95;;;23.70;99.90;;;;;;4948136;28;20201;-66
2021/07/18 08:44:39;;;;;;;1.73;1.30;;;23.60;99.90;;;;;;4948128;28;20241;-66
2021/07/18 08:47:05;;;;;;;5.20;1.40;;;23.80;99.90;;;;;;4948382;28;20272;-69
2021/07/18 08:49:31;;;;;;;2.10;1.20;;;24.00;99.90;;;;;;4948210;28;20253;-68
2021/07/18 08:51:57;;;;;;;2.45;1.33;;;24.20;99.90;;;;;;4949399;28;20614;-68
2021/07/18 08:54:25;;;;;;;1.15;0.80;;;24.30;99.90;;;;;;4949718;28;20554;-65
2021/07/18 08:56:52;;;;;;;1.20;1.10;;;24.30;99.90;;;;;;4948235;28;20213;-70
2021/07/18 08:59:18;;;;;;;1.38;1.25;;;24.20;99.90;;;;;;4948255;28;20260;-67
2021/07/18 09:01:44;;;;;;;1.38;1.15;;;24.50;99.90;;;;;;4948429;28;20660;-68
2021/07/18 09:04:11;;;;;;;2.35;1.20;;;24.70;99.90;;;;;;4948273;28;20239;-71
2021/07/18 09:06:47;;;;;;;1.20;1.10;;;24.70;99.90;;;;;;4947947;28;20189;-68
2021/07/18 09:09:18;;;;;;;1.80;1.10;;;24.40;99.90;;;;;;4948485;28;20213;-70
2021/07/18 09:11:52;;;;;;;1.30;1.20;;;24.50;99.90;;;;;;4948701;28;20197;-68
2021/07/18 09:14:18;;;;;;;1.33;1.10;;;24.60;99.90;;;;;;4947298;28;20200;-68
2021/07/18 09:16:44;;;;;;;1.55;1.20;;;24.60;99.90;;;;;;4947882;28;20185;-68
2021/07/18 09:19:29;;;;;;;2.42;1.45;;;24.40;99.90;;;;;;4946199;28;20265;-68
2021/07/18 09:21:57;;;;;;;1.30;1.20;;;24.60;99.90;;;;;;4948521;28;20196;-68
2021/07/18 09:24:25;;;;;;;1.20;1.02;;;24.80;99.90;;;;;;4947969;29;20198;-66
2021/07/18 09:27:23;;;;;;;1.50;1.40;;;24.90;99.90;;;;;;4946907;28;20190;-69
2021/07/18 09:29:50;;;;;;;2.42;1.00;;;25.00;99.90;;;;;;4947471;29;20197;-68
2021/07/18 09:32:23;;;;;;;1.25;1.15;;;25.10;99.90;;;;;;4947985;28;20750;-69
2021/07/18 09:34:51;;;;;;;1.35;1.15;;;25.20;99.90;;;;;;4947971;28;20189;-70
2021/07/18 09:37:28;;;;;;;1.95;1.40;;;25.40;99.90;;;;;;4946767;28;20192;-69
2021/07/18 09:40:00;;;;;;;1.20;1.10;;;25.60;99.90;;;;;;4947712;28;20205;-67
2021/07/18 09:42:42;;;;;;;4.50;1.50;;;25.50;99.90;;;;;;4947722;29;20220;-67
2021/07/18 09:45:14;;;;;;;1.83;1.15;;;25.50;99.90;;;;;;4947738;28;20264;-68
2021/07/18 09:47:56;;;;;;;2.45;1.20;;;25.70;99.90;;;;;;4947383;28;20181;-66
2021/07/18 09:50:35;;;;;;;1.30;1.20;;;25.70;99.90;;;;;;4947715;29;20201;-67
2021/07/18 09:53:21;;;;;;;1.60;1.13;;;25.60;99.90;;;;;;4947785;29;20174;-69
2021/07/18 09:56:03;;;;;;;1.50;1.40;;;25.70;99.90;;;;;;4947185;28;20221;-71
2021/07/18 09:58:31;;;;;;;2.90;1.40;;;25.60;99.90;;;;;;4947469;29;20177;-70
2021/07/18 10:00:58;;;;;;;1.85;1.27;;;25.40;99.90;;;;;;4947811;28;20216;-68
2021/07/18 10:03:27;;;;;;;2.42;1.40;;;25.60;99.90;;;;;;4946929;29;20292;-68
2021/07/18 10:06:16;;;;;;;1.85;1.20;;;25.70;99.90;;;;;;4946788;28;20209;-68
2021/07/18 10:08:44;;;;;;;2.65;1.75;;;25.80;99.90;;;;;;4947454;28;20197;-70
2021/07/18 10:11:16;;;;;;;2.20;1.63;;;25.90;99.90;;;;;;4947334;28;20834;-71
2021/07/18 10:13:45;;;;;;;1.33;1.23;;;26.00;99.90;;;;;;4947236;29;20316;-69
2021/07/18 10:16:12;;;;;;;1.63;1.20;;;26.00;99.90;;;;;;4946717;28;20193;-70
2021/07/18 10:18:39;;;;;;;2.13;1.88;;;26.00;99.90;;;;;;4947447;28;20190;-70
2021/07/18 10:21:06;;;;;;;2.15;1.80;;;26.10;99.90;;;;;;4947155;28;20216;-68
2021/07/18 10:23:35;;;;;;;2.10;1.90;;;26.20;99.90;;;;;;4947216;28;20280;-67
2021/07/18 10:26:02;;;;;;;2.15;1.45;;;26.50;99.90;;;;;;4945887;28;20193;-66
2021/07/18 10:28:27;;;;;;;1.52;1.42;;;26.60;99.90;;;;;;4947417;28;20236;-72
2021/07/18 10:31:02;;;;;;;2.47;1.83;;;26.50;99.90;;;;;;4946895;28;20205;-70
2021/07/18 10:33:30;;;;;;;1.70;1.60;;;26.20;99.90;;;;;;4947110;29;20235;-67
2021/07/18 10:35:56;;;;;;;2.28;1.85;;;26.30;99.90;;;;;;4946129;28;20186;-67
2021/07/18 10:38:24;;;;;;;1.90;1.58;;;25.90;99.90;;;;;;4946937;29;20212;-68
2021/07/18 10:40:56;;;;;;;2.00;1.80;;;25.70;99.90;;;;;;4947272;28;20233;-67
2021/07/18 10:43:47;;;;;;;1.67;1.58;;;25.90;99.90;;;;;;4961836;28;20201;-68
2021/07/18 10:46:36;;;;;;;2.28;1.98;;;26.00;99.90;;;;;;4946319;28;20186;-69
2021/07/18 10:49:02;;;;;;;1.80;1.70;;;25.90;99.90;;;;;;4946747;29;20209;-68
2021/07/18 10:51:36;;;;;;;1.70;1.60;;;26.00;99.90;;;;;;4947216;28;20194;-69
2021/07/18 10:54:23;;;;;;;2.75;2.00;;;26.20;99.90;;;;;;4946527;29;20185;-68
2021/07/18 10:56:50;;;;;;;2.50;2.30;;;26.20;99.90;;;;;;4946598;28;20185;-70
2021/07/18 10:59:35;;;;;;;5.75;2.47;;;26.10;99.90;;;;;;4946841;28;20209;-70
2021/07/18 11:02:08;;;;;;;2.53;2.30;;;26.10;99.90;;;;;;4946806;28;20186;-69
2021/07/18 11:04:51;;;;;;;2.78;2.00;;;25.90;99.90;;;;;;4946716;28;20250;-70
2021/07/18 11:07:28;;;;;;;2.08;1.88;;;26.10;99.90;;;;;;4945380;28;20181;-67
2021/07/18 11:10:10;;;;;;;3.65;2.10;;;26.10;99.90;;;;;;4946007;29;20553;-68
2021/07/18 11:12:38;;;;;;;2.55;1.60;;;25.90;99.90;;;;;;4958758;28;20182;-71
2021/07/18 11:15:15;;;;;;;2.35;2.05;;;25.80;99.90;;;;;;4947000;28;20566;-64
2021/07/18 11:17:56;;;;;;;2.63;2.20;;;26.10;99.90;;;;;;4946288;28;20676;-68
2021/07/18 11:20:41;;;;;;;3.53;2.45;;;26.30;99.90;;;;;;4946456;28;20209;-67
2021/07/18 11:23:29;;;;;;;1.60;1.48;;;26.50;99.90;;;;;;4946067;28;20200;-68
2021/07/18 11:25:59;;;;;;;2.40;1.50;;;26.70;99.90;;;;;;4945475;29;20188;-67
2021/07/18 11:28:32;;;;;;;1.88;1.50;;;26.70;99.90;;;;;;4945686;29;20174;-69
2021/07/18 11:31:10;;;;;;;2.78;1.92;;;26.70;99.90;;;;;;4945915;28;20205;-68
2021/07/18 11:33:52;;;;;;;2.15;1.75;;;26.50;99.90;;;;;;4945255;28;20575;-66
2021/07/18 11:36:23;;;;;;;2.08;1.75;;;26.20;99.90;;;;;;4945267;28;20213;-70
2021/07/18 11:38:50;;;;;;;3.78;1.90;;;25.90;99.90;;;;;;4945833;28;21263;-68
2021/07/18 11:41:42;;;;;;;2.55;1.95;;;26.00;99.90;;;;;;4945870;28;20192;-67
2021/07/18 11:44:09;;;;;;;1.83;1.55;;;26.30;99.90;;;;;;4945310;29;20221;-69
2021/07/18 11:46:40;;;;;;;2.80;1.92;;;26.50;99.90;;;;;;4945185;28;20169;-66
2021/07/18 11:49:07;;;;;;;3.00;1.70;;;26.50;99.90;;;;;;4946501;28;20185;-67
2021/07/18 11:51:38;;;;;;;2.47;2.17;;;26.50;99.90;;;;;;4945976;28;20196;-69
2021/07/18 11:54:05;;;;;;;2.20;1.75;;;26.80;99.90;;;;;;4946070;29;20220;-67
2021/07/18 11:56:38;;;;;;;1.92;1.73;;;26.80;99.90;;;;;;4945269;28;20265;-68
2021/07/18 11:59:12;;;;;;;2.30;1.80;;;26.90;99.90;;;;;;4943533;28;20232;-67
2021/07/18 12:01:40;;;;;;;2.40;1.73;;;26.90;99.90;;;;;;4945272;28;20196;-67
2021/07/18 12:04:07;;;;;;;2.28;1.90;;;27.10;99.90;;;;;;4945629;28;20228;-67
2021/07/18 12:06:34;;;;;;;2.33;2.13;;;26.70;99.90;;;;;;4945035;28;20182;-66
2021/07/18 12:09:13;;;;;;;2.22;2.00;;;26.50;99.90;;;;;;4945174;28;20196;-67
2021/07/18 12:11:39;;;;;;;2.80;2.05;;;26.70;99.90;;;;;;4943801;28;20216;-67
2021/07/18 12:14:09;;;;;;;2.45;2.10;;;26.80;99.90;;;;;;4943822;28;20220;-68
2021/07/18 12:16:37;;;;;;;2.75;2.08;;;26.90;99.90;;;;;;4944304;28;20309;-67
2021/07/18 12:19:05;;;;;;;2.08;1.70;;;27.00;99.90;;;;;;4946029;28;20189;-68
2021/07/18 12:21:34;;;;;;;2.10;1.77;;;27.20;99.90;;;;;;4945710;28;20239;-68
2021/07/18 12:24:10;;;;;;;1.77;1.48;;;27.20;99.90;;;;;;4945650;28;20201;-68
2021/07/18 12:26:37;;;;;;;1.98;1.55;;;27.10;99.90;;;;;;4945619;28;20181;-67
2021/07/18 12:29:04;;;;;;;1.55;1.45;;;27.10;99.90;;;;;;4945737;28;20190;-68
2021/07/18 12:31:30;;;;;;;2.40;1.10;;;27.10;99.90;;;;;;4945583;28;20205;-67
2021/07/18 12:33:56;;;;;;;1.38;1.27;;;27.00;99.90;;;;;;4945757;28;20190;-68
2021/07/18 12:36:21;;;;;;;1.73;1.30;;;26.80;99.90;;;;;;4944965;28;20204;-67
2021/07/18 12:38:47;;;;;;;1.92;1.25;;;26.80;99.90;;;;;;4945782;28;20194;-67
2021/07/18 12:41:13;;;;;;;2.05;1.70;;;26.90;99.90;;;;;;4945502;28;20201;-70
2021/07/18 12:43:39;;;;;;;1.67;1.58;;;26.90;99.90;;;;;;4945700;28;20715;-66
2021/07/18 12:46:08;;;;;;;1.80;1.60;;;27.10;99.90;;;;;;4944880;28;20192;-68
2021/07/18 12:48:34;;;;;;;1.70;1.50;;;27.40;99.90;;;;;;4946494;28;20181;-67
2021/07/18 12:51:15;;;;;;;1.50;1.40;;;27.20;99.90;;;;;;4949049;28;20201;-66
2021/07/18 12:53:42;;;;;;;1.38;1.27;;;27.00;99.90;;;;;;4947683;28;20190;-68
2021/07/18 12:56:09;;;;;;;1.98;1.77;;;27.20;99.90;;;;;;4948600;28;20225;-70